Time;durP1;ratioP1;P1;durP2;ratioP2;P2;SDS_P1;SDS_P2;PMS_P1;PMS_P2;Temp;Humidity;BMP_temperature;BMP_pressure;BME280_temperature;BME280_humidity;BME280_pressure;Samples;Min_cycle;Max_cycle;Signal;HPM_P1;HPM_P2
2023/03/25 00:01:47;;;;;;;1.92;1.20;;;;;;;8.10;62.31;98933.91;10389215;28;20450;-62
2023/03/25 00:06:49;;;;;;;2.22;1.25;;;;;;;8.12;62.29;98950.31;10390850;28;20281;-62
2023/03/25 00:11:51;;;;;;;2.60;1.00;;;;;;;8.17;62.10;98967.28;10394226;28;20520;-62
2023/03/25 00:16:53;;;;;;;3.03;1.20;;;;;;;8.14;61.74;98967.47;10391462;28;20072;-62
2023/03/25 00:21:55;;;;;;;1.80;1.00;;;;;;;8.17;61.63;98962.09;10393245;28;20053;-61
2023/03/25 00:26:56;;;;;;;2.65;0.90;;;;;;;8.18;61.53;98952.50;10395125;28;20509;-61
2023/03/25 00:31:58;;;;;;;2.17;1.00;;;;;;;7.95;61.85;98975.63;10393072;28;20048;-61
2023/03/25 00:37:04;;;;;;;3.67;1.10;;;;;;;8.02;61.83;98984.72;10367833;28;20768;-61
2023/03/25 00:42:10;;;;;;;4.25;1.00;;;;;;;8.10;61.60;98988.59;10392833;28;20056;-61
2023/03/25 00:47:17;;;;;;;2.67;0.98;;;;;;;8.14;61.58;98990.91;10381390;28;22112;-62
2023/03/25 00:52:21;;;;;;;2.60;0.88;;;;;;;8.29;61.19;98989.94;10392341;28;20042;-61
2023/03/25 00:57:23;;;;;;;3.97;1.20;;;;;;;8.39;61.09;98987.56;10393306;28;20179;-62
2023/03/25 01:02:25;;;;;;;2.83;1.23;;;;;;;8.51;60.77;98984.13;10388860;28;20053;-62
2023/03/25 01:07:30;;;;;;;3.65;1.15;;;;;;;8.62;60.52;98973.84;10383107;28;20051;-61
2023/03/25 01:12:32;;;;;;;4.72;1.38;;;;;;;8.68;60.38;98958.63;10394490;28;20072;-62
2023/03/25 01:17:34;;;;;;;3.60;1.00;;;;;;;8.81;59.79;98946.44;10402516;28;20509;-62
2023/03/25 01:22:36;;;;;;;2.97;1.00;;;;;;;8.86;59.94;98943.50;10374528;28;20068;-61
2023/03/25 01:27:38;;;;;;;3.45;1.10;;;;;;;8.76;59.93;98942.47;10386785;28;20045;-61
2023/03/25 01:32:39;;;;;;;4.28;1.15;;;;;;;8.85;59.98;98931.44;10389494;28;20045;-61
2023/03/25 01:37:43;;;;;;;5.07;1.27;;;;;;;8.86;59.94;98925.25;10390424;28;20123;-61
2023/03/25 01:42:45;;;;;;;3.83;0.98;;;;;;;8.90;60.20;98925.88;10389728;28;20386;-61
2023/03/25 01:47:51;;;;;;;3.35;1.10;;;;;;;8.72;60.77;98918.41;10388916;28;20514;-62
2023/03/25 01:52:55;;;;;;;3.60;1.20;;;;;;;8.56;63.16;98917.78;10385948;28;20050;-61
2023/03/25 01:57:58;;;;;;;2.58;1.10;;;;;;;8.42;62.31;98920.47;10389982;28;20496;-61
2023/03/25 02:03:01;;;;;;;4.88;1.25;;;;;;;8.42;62.94;98904.00;10387799;28;20057;-62
2023/03/25 02:08:04;;;;;;;4.47;1.20;;;;;;;8.56;63.01;98896.06;10368208;28;20046;-62
2023/03/25 02:13:06;;;;;;;6.28;1.38;;;;;;;8.60;62.48;98889.72;10390749;28;20049;-61
2023/03/25 02:18:18;;;;;;;6.00;1.60;;;;;;;8.62;62.98;98887.84;10388528;28;20053;-61
2023/03/25 02:23:56;;;;;;;7.03;1.55;;;;;;;8.60;63.07;98882.75;10390376;28;20069;-62
2023/03/25 02:29:07;;;;;;;4.32;1.58;;;;;;;8.61;63.10;98886.16;10392576;28;20041;-62
2023/03/25 02:34:47;;;;;;;4.22;1.30;;;;;;;8.44;63.40;98886.50;10389079;28;20045;-62
2023/03/25 02:39:52;;;;;;;8.27;1.50;;;;;;;8.37;63.88;98882.59;10388010;28;20053;-62
2023/03/25 02:45:06;;;;;;;5.45;1.75;;;;;;;8.35;63.99;98881.88;10387375;28;20059;-61
2023/03/25 02:50:24;;;;;;;7.03;1.80;;;;;;;8.23;64.32;98874.88;10390851;28;20060;-61
2023/03/25 02:55:32;;;;;;;7.78;1.70;;;;;;;8.41;63.75;98866.69;10387920;28;20051;-61
2023/03/25 03:00:37;;;;;;;6.32;1.40;;;;;;;8.42;63.97;98865.75;10386866;28;20094;-62
2023/03/25 03:05:45;;;;;;;7.35;1.48;;;;;;;8.33;63.92;98849.88;10378502;28;20041;-61
2023/03/25 03:10:56;;;;;;;6.28;1.60;;;;;;;8.07;64.69;98851.63;10394779;28;20290;-61
2023/03/25 03:16:13;;;;;;;9.20;1.90;;;;;;;8.16;64.43;98847.59;10393538;28;20045;-61
2023/03/25 03:21:28;;;;;;;4.88;1.33;;;;;;;8.03;64.39;98844.94;10394563;28;20506;-61
2023/03/25 03:26:52;;;;;;;5.10;1.52;;;;;;;8.09;64.16;98854.94;10394619;28;20458;-61
2023/03/25 03:32:00;;;;;;;7.70;1.50;;;;;;;8.16;63.85;98858.03;10398085;28;20301;-61
2023/03/25 03:37:10;;;;;;;4.95;1.67;;;;;;;8.11;64.08;98862.69;10397111;28;20521;-61
2023/03/25 03:42:33;;;;;;;8.68;1.75;;;;;;;7.96;64.26;98864.50;10402175;28;20056;-61
2023/03/25 03:47:41;;;;;;;4.63;1.30;;;;;;;7.97;64.11;98876.59;10384927;28;20424;-61
2023/03/25 03:52:49;;;;;;;5.20;1.23;;;;;;;7.85;64.53;98888.63;10402246;28;20136;-61
2023/03/25 03:57:57;;;;;;;5.40;1.30;;;;;;;7.90;64.28;98901.34;10385157;28;20052;-61
2023/03/25 04:03:24;;;;;;;3.88;1.40;;;;;;;7.90;64.05;98906.56;10402060;28;20492;-61
2023/03/25 04:08:33;;;;;;;5.25;1.80;;;;;;;8.02;63.96;98922.22;10400221;28;20322;-62
2023/03/25 04:13:39;;;;;;;4.50;1.45;;;;;;;7.95;63.94;98910.56;10394939;28;20529;-61
2023/03/25 04:18:42;;;;;;;6.20;1.60;;;;;;;7.95;63.68;98915.75;10394156;28;20063;-61
2023/03/25 04:23:45;;;;;;;6.20;1.70;;;;;;;7.81;63.72;98921.00;10393593;28;20051;-61
2023/03/25 04:28:46;;;;;;;7.88;1.60;;;;;;;7.75;63.75;98918.78;10394184;28;20072;-61
2023/03/25 04:33:49;;;;;;;6.28;1.90;;;;;;;7.93;63.68;98924.59;10393953;28;20387;-63
2023/03/25 04:38:51;;;;;;;5.72;1.80;;;;;;;7.92;63.74;98931.56;10395151;28;20130;-61
2023/03/25 04:43:53;;;;;;;8.95;1.52;;;;;;;7.80;64.41;98936.72;10396534;28;20049;-61
2023/03/25 04:48:55;;;;;;;4.30;1.40;;;;;;;8.00;63.97;98934.50;10393020;28;20049;-62
2023/03/25 04:53:58;;;;;;;7.05;1.42;;;;;;;8.06;63.67;98929.84;10392521;28;20056;-62
2023/03/25 04:58:59;;;;;;;3.53;1.27;;;;;;;8.12;63.21;98942.50;10394994;28;20053;-61
2023/03/25 05:04:04;;;;;;;5.60;1.40;;;;;;;8.04;62.97;98951.59;10392270;28;21943;-61
2023/03/25 05:09:08;;;;;;;3.33;1.30;;;;;;;7.79;63.52;98948.88;10396900;28;20046;-61
2023/03/25 05:14:12;;;;;;;3.92;1.20;;;;;;;7.63;63.83;98958.59;10392564;28;20050;-61
2023/03/25 05:19:17;;;;;;;5.38;1.40;;;;;;;7.50;63.99;98939.50;10382952;28;20060;-62
2023/03/25 05:24:19;;;;;;;6.55;1.60;;;;;;;7.40;63.94;98954.03;10391571;28;20060;-61
2023/03/25 05:29:21;;;;;;;4.35;1.20;;;;;;;7.37;63.97;98959.41;10391781;28;20045;-61
2023/03/25 05:34:24;;;;;;;4.28;1.50;;;;;;;7.38;63.57;98961.09;10391423;28;20395;-62
2023/03/25 05:39:26;;;;;;;5.85;1.30;;;;;;;7.40;63.33;98958.38;10391358;28;20049;-61
2023/03/25 05:44:27;;;;;;;3.63;1.20;;;;;;;7.25;63.17;98957.56;10384576;28;20505;-60
2023/03/25 05:49:29;;;;;;;3.95;1.40;;;;;;;7.35;63.06;98961.25;10392044;28;20045;-61
2023/03/25 05:54:31;;;;;;;3.72;1.23;;;;;;;7.60;62.52;98965.78;10392884;28;20048;-61
2023/03/25 05:59:33;;;;;;;4.15;1.40;;;;;;;7.73;62.08;98977.09;10389735;28;20683;-62
2023/03/25 06:04:40;;;;;;;4.00;1.27;;;;;;;7.88;61.48;98982.16;10389655;28;20864;-61
2023/03/25 06:09:44;;;;;;;7.47;1.40;;;;;;;7.99;61.11;98987.53;10392803;28;20412;-61
2023/03/25 06:14:52;;;;;;;4.10;1.30;;;;;;;7.97;60.91;98981.59;10389851;28;21502;-62
2023/03/25 06:19:54;;;;;;;4.72;1.55;;;;;;;7.89;60.85;98983.84;10389285;28;20144;-62
2023/03/25 06:24:56;;;;;;;11.25;4.25;;;;;;;7.90;60.63;98964.66;10389368;28;20049;-62
2023/03/25 06:29:57;;;;;;;6.25;1.50;;;;;;;7.81;60.96;98967.03;10389332;28;20528;-61
2023/03/25 06:34:59;;;;;;;2.85;1.10;;;;;;;7.83;60.83;98955.56;10388443;28;20499;-61
2023/03/25 06:40:01;;;;;;;3.88;1.20;;;;;;;8.17;60.43;98958.63;10382881;28;20095;-61
2023/03/25 06:45:03;;;;;;;6.13;1.60;;;;;;;8.42;59.85;98967.38;10387866;28;20045;-61
2023/03/25 06:50:06;;;;;;;4.40;1.42;;;;;;;8.39;59.57;98967.56;10388737;28;20045;-62
2023/03/25 06:55:08;;;;;;;6.30;1.60;;;;;;;8.53;59.55;98964.03;10388864;28;20422;-62
2023/03/25 07:00:10;;;;;;;5.50;1.60;;;;;;;8.90;59.15;98951.94;10387921;28;20324;-61
2023/03/25 07:05:12;;;;;;;4.35;1.50;;;;;;;9.29;58.09;98960.47;10388661;28;20502;-61
2023/03/25 07:10:14;;;;;;;6.78;1.63;;;;;;;9.39;57.49;98951.06;10386906;28;20045;-62
2023/03/25 07:15:16;;;;;;;6.72;1.60;;;;;;;9.46;57.25;98941.84;10395762;28;20047;-62
2023/03/25 07:20:17;;;;;;;6.13;1.60;;;;;;;9.70;56.57;98935.88;10398168;28;20053;-61
2023/03/25 07:25:19;;;;;;;8.60;2.35;;;;;;;9.85;56.27;98940.81;10397307;28;20045;-62
2023/03/25 07:30:21;;;;;;;7.68;1.90;;;;;;;10.05;55.40;98947.22;10390289;28;20049;-61
2023/03/25 07:35:22;;;;;;;8.95;1.80;;;;;;;9.98;55.64;98940.75;10394063;28;20474;-62
2023/03/25 07:40:24;;;;;;;9.18;2.05;;;;;;;9.86;55.58;98949.47;10390930;28;20140;-62
2023/03/25 07:45:26;;;;;;;8.45;1.60;;;;;;;9.97;55.53;98941.72;10396645;28;20251;-61
2023/03/25 07:50:28;;;;;;;9.10;2.22;;;;;;;10.04;55.32;98941.16;10386762;28;20056;-62
2023/03/25 07:55:30;;;;;;;7.50;2.10;;;;;;;10.73;54.25;98937.66;10392434;28;20401;-62
2023/03/25 08:00:33;;;;;;;9.00;2.13;;;;;;;11.48;52.41;98923.06;10391896;28;20076;-62
2023/03/25 08:05:36;;;;;;;11.43;2.28;;;;;;;11.15;52.13;98931.78;10386887;28;20518;-62
2023/03/25 08:10:42;;;;;;;9.55;2.25;;;;;;;11.11;52.05;98932.16;10391960;28;20048;-62
2023/03/25 08:15:44;;;;;;;12.80;1.98;;;;;;;11.36;51.73;98934.50;10391964;28;20099;-62
2023/03/25 08:20:49;;;;;;;9.30;2.42;;;;;;;11.13;52.04;98935.50;10393879;28;20232;-62
2023/03/25 08:25:52;;;;;;;7.82;1.95;;;;;;;11.00;52.61;98934.72;10391608;28;20441;-62
2023/03/25 08:30:54;;;;;;;10.00;2.63;;;;;;;10.55;53.37;98939.06;10386496;28;20220;-63
2023/03/25 08:35:56;;;;;;;7.82;2.15;;;;;;;10.33;54.06;98929.38;10381120;28;20049;-62
2023/03/25 08:40:58;;;;;;;8.27;2.13;;;;;;;10.98;52.69;98924.38;10387400;28;20052;-62
2023/03/25 08:46:00;;;;;;;10.13;2.22;;;;;;;10.96;51.81;98896.66;10385135;28;20432;-62
2023/03/25 08:51:02;;;;;;;9.45;2.25;;;;;;;10.29;53.09;98943.63;10389107;28;20050;-61
2023/03/25 08:56:04;;;;;;;7.38;1.35;;;;;;;9.26;54.42;98971.13;10387381;28;20561;-62
2023/03/25 09:01:06;;;;;;;5.13;1.25;;;;;;;8.71;55.68;98999.28;10389852;28;20054;-69
2023/03/25 09:06:08;;;;;;;2.63;0.80;;;;;;;8.76;55.61;99016.31;10392905;28;20449;-68
2023/03/25 09:11:10;;;;;;;1.80;0.73;;;;;;;8.42;55.96;99018.63;10387635;28;20045;-69
2023/03/25 09:16:12;;;;;;;3.78;0.88;;;;;;;8.75;55.82;99006.81;10391149;28;20045;-68
2023/03/25 09:21:14;;;;;;;2.08;0.80;;;;;;;9.40;54.52;99011.94;10390078;28;20049;-68
2023/03/25 09:26:16;;;;;;;2.20;0.70;;;;;;;9.84;53.94;99003.59;10389897;28;20409;-68
2023/03/25 09:31:18;;;;;;;2.33;0.90;;;;;;;9.94;53.09;99025.50;10387970;28;20038;-69
2023/03/25 09:36:20;;;;;;;0.98;0.70;;;;;;;9.89;52.51;99015.38;10390733;28;20059;-69
2023/03/25 09:41:29;;;;;;;3.30;0.90;;;;;;;10.11;53.33;99033.81;10389537;28;20045;-69
2023/03/25 09:46:31;;;;;;;2.90;0.80;;;;;;;10.52;51.70;99024.75;10382551;28;20057;-69
2023/03/25 09:51:36;;;;;;;5.82;1.17;;;;;;;10.03;52.24;99024.84;10387142;28;20456;-69
2023/03/25 09:56:42;;;;;;;2.22;0.85;;;;;;;10.22;52.11;99015.56;10386071;28;20703;-69
2023/03/25 10:02:10;;;;;;;2.13;1.00;;;;;;;10.73;50.86;99021.34;10384810;28;20044;-70
2023/03/25 10:07:20;;;;;;;3.78;1.20;;;;;;;11.18;50.13;99010.06;10387739;28;20191;-70
2023/03/25 10:12:25;;;;;;;2.33;0.90;;;;;;;10.95;50.90;98999.66;10383367;28;20041;-69
2023/03/25 10:17:56;;;;;;;3.40;1.10;;;;;;;11.02;50.72;99001.69;10386749;28;20489;-71
2023/03/25 10:23:20;;;;;;;3.90;1.10;;;;;;;11.58;49.93;99005.16;10326712;28;20139;-70
2023/03/25 10:28:32;;;;;;;4.38;1.15;;;;;;;11.84;49.20;99001.34;10342061;28;20038;-70
2023/03/25 10:33:42;;;;;;;4.38;1.13;;;;;;;11.74;48.43;98994.34;10342208;28;20045;-69
2023/03/25 10:38:46;;;;;;;4.80;1.17;;;;;;;11.45;49.46;99016.72;10341552;28;20045;-70
2023/03/25 10:43:49;;;;;;;5.60;1.70;;;;;;;11.72;51.22;99006.72;10348256;28;20057;-69
2023/03/25 10:48:51;;;;;;;3.60;1.20;;;;;;;12.00;49.68;99001.78;10342864;28;20348;-71
2023/03/25 10:53:53;;;;;;;5.80;1.63;;;;;;;12.36;48.90;98982.28;10336089;28;20565;-69
2023/03/25 10:58:56;;;;;;;5.90;1.38;;;;;;;12.56;47.88;98999.81;10341529;28;20770;-71
2023/03/25 11:03:59;;;;;;;5.40;1.60;;;;;;;12.62;47.27;98988.00;10344595;28;20394;-69
2023/03/25 11:09:29;;;;;;;5.07;1.55;;;;;;;12.37;46.54;98989.19;10342876;28;21138;-70
2023/03/25 11:14:37;;;;;;;3.95;1.40;;;;;;;12.60;46.66;98990.75;10339019;28;20149;-70
2023/03/25 11:19:43;;;;;;;4.97;1.50;;;;;;;12.80;46.79;98989.91;10349486;28;20064;-70
2023/03/25 11:24:48;;;;;;;6.55;1.52;;;;;;;12.75;45.15;98978.97;10381252;28;20049;-70
2023/03/25 11:29:56;;;;;;;4.85;1.52;;;;;;;12.59;44.38;98972.50;10384655;28;20301;-69
2023/03/25 11:35:02;;;;;;;8.23;1.70;;;;;;;13.03;43.25;98977.47;10385103;28;20417;-69
2023/03/25 11:40:14;;;;;;;6.88;1.98;;;;;;;13.03;42.91;98977.47;10380932;28;20049;-69
2023/03/25 11:45:38;;;;;;;6.57;1.60;;;;;;;12.68;42.94;98972.56;10384935;28;20064;-70
2023/03/25 11:50:51;;;;;;;7.50;1.75;;;;;;;12.96;42.33;98981.59;10381868;28;20053;-69
2023/03/25 11:55:58;;;;;;;6.05;1.65;;;;;;;12.80;44.86;98987.28;10385310;28;20553;-70
2023/03/25 12:01:02;;;;;;;8.75;1.63;;;;;;;12.79;46.56;99000.53;10390454;28;20650;-69
2023/03/25 12:06:10;;;;;;;4.55;1.42;;;;;;;12.43;49.46;98993.94;10371055;28;20053;-68
2023/03/25 12:11:44;;;;;;;6.97;1.42;;;;;;;12.09;49.69;98982.69;10387906;28;20103;-70
2023/03/25 12:17:01;;;;;;;7.95;1.80;;;;;;;12.37;48.73;98965.59;10390657;28;20056;-68
2023/03/25 12:22:34;;;;;;;5.28;1.90;;;;;;;12.54;48.08;98966.81;10391382;28;20064;-69
2023/03/25 12:28:06;;;;;;;6.93;1.75;;;;;;;13.31;46.70;98966.28;10367870;28;20041;-68
2023/03/25 12:33:33;;;;;;;4.40;1.50;;;;;;;13.82;43.62;98945.16;10379506;28;20046;-68
2023/03/25 12:39:06;;;;;;;6.85;1.48;;;;;;;13.90;42.63;98947.97;10387694;28;20339;-68
2023/03/25 12:44:46;;;;;;;6.05;1.80;;;;;;;13.21;44.19;98972.47;10396169;28;20054;-68
2023/03/25 12:49:55;;;;;;;4.70;1.38;;;;;;;13.15;44.39;98978.25;10380578;28;20061;-69
2023/03/25 12:55:34;;;;;;;5.82;1.50;;;;;;;12.39;46.12;98973.34;10389979;28;20049;-68
2023/03/25 13:01:03;;;;;;;2.70;1.08;;;;;;;12.36;46.91;98966.53;10374210;28;20406;-68
2023/03/25 13:06:20;;;;;;;4.60;1.42;;;;;;;12.43;47.08;98949.34;10389078;28;20056;-68
2023/03/25 13:11:40;;;;;;;4.70;1.27;;;;;;;12.43;45.84;98941.50;10384541;28;20045;-69
2023/03/25 13:16:44;;;;;;;4.22;1.40;;;;;;;12.62;45.62;98933.75;10382799;28;20055;-69
2023/03/25 13:21:54;;;;;;;4.97;1.67;;;;;;;12.28;46.01;98949.75;10378041;28;20508;-68
2023/03/25 13:26:58;;;;;;;5.85;1.60;;;;;;;12.45;45.61;98951.84;10383664;28;21585;-68
2023/03/25 13:32:05;;;;;;;5.60;1.70;;;;;;;12.88;45.18;98934.19;10385711;28;20214;-69
2023/03/25 13:37:16;;;;;;;7.57;1.75;;;;;;;12.68;42.64;98956.03;10389718;28;20137;-69
2023/03/25 13:42:41;;;;;;;7.43;1.55;;;;;;;12.78;42.40;98920.19;10387927;28;20099;-68
2023/03/25 13:48:06;;;;;;;5.78;1.65;;;;;;;12.93;40.98;98938.06;10385139;28;20317;-68
2023/03/25 13:53:14;;;;;;;11.27;2.05;;;;;;;13.04;40.32;98933.69;10356627;28;20055;-67
2023/03/25 13:58:15;;;;;;;6.07;1.88;;;;;;;13.10;39.54;98913.00;10389957;28;20473;-67
2023/03/25 14:03:35;;;;;;;6.15;1.75;;;;;;;13.08;39.17;98942.97;10388614;28;20489;-67
2023/03/25 14:09:08;;;;;;;6.30;1.70;;;;;;;13.24;39.52;98945.94;10388701;28;20064;-67
2023/03/25 14:14:21;;;;;;;7.65;1.60;;;;;;;13.48;38.56;98943.84;10385934;28;20573;-68
2023/03/25 14:19:47;;;;;;;11.20;2.03;;;;;;;13.73;37.56;98938.13;10388268;28;20069;-67
2023/03/25 14:24:50;;;;;;;5.28;1.60;;;;;;;13.57;37.07;98908.91;10385802;28;20049;-67
2023/03/25 14:30:05;;;;;;;5.15;1.58;;;;;;;13.58;37.30;98924.53;10386277;28;20049;-68
2023/03/25 14:40:43;;;;;;;7.15;1.83;;;;;;;14.59;36.56;98920.56;10388213;28;20152;-67
2023/03/25 14:46:09;;;;;;;7.45;1.52;;;;;;;14.49;35.44;98898.72;10387440;28;20806;-68
2023/03/25 14:51:42;;;;;;;6.07;1.60;;;;;;;13.85;34.93;98921.25;10387050;28;20060;-67
2023/03/25 14:56:55;;;;;;;5.68;1.60;;;;;;;14.04;35.49;98918.66;10386573;28;20042;-67
2023/03/25 15:02:04;;;;;;;4.65;1.40;;;;;;;13.94;34.37;98907.31;10392499;28;20044;-67
2023/03/25 15:07:18;;;;;;;6.53;2.00;;;;;;;14.07;35.23;98907.00;10400426;28;20060;-67
2023/03/25 15:12:24;;;;;;;4.78;1.55;;;;;;;13.41;35.70;98892.81;10385739;28;20796;-68
2023/03/25 15:17:44;;;;;;;4.90;1.50;;;;;;;13.48;35.99;98892.16;10389807;28;20128;-68
2023/03/25 15:23:06;;;;;;;;;;;;;;;13.33;35.97;98911.03;10388450;28;20320;-67
2023/03/25 15:28:20;;;;;;;;;;;;;;;13.21;36.51;98909.47;10386253;28;20473;-68
2023/03/25 15:33:49;;;;;;;6.80;1.58;;;;;;;13.49;36.59;98895.63;10386524;28;19928;-68
2023/03/25 15:39:20;;;;;;;5.18;1.58;;;;;;;13.24;36.72;98917.06;10404432;28;20539;-67
2023/03/25 15:44:21;;;;;;;5.67;1.47;;;;;;;13.07;37.46;98909.81;10374245;28;20045;-68
2023/03/25 15:50:08;;;;;;;6.20;1.65;;;;;;;12.57;37.89;98898.38;10392330;28;21306;-67
2023/03/25 15:55:30;;;;;;;6.03;1.40;;;;;;;12.97;37.88;98920.25;10377383;28;20051;-68
2023/03/25 16:00:37;;;;;;;5.47;1.63;;;;;;;13.02;37.53;98912.00;10403803;28;20045;-68
2023/03/25 16:05:46;;;;;;;7.05;1.65;;;;;;;12.88;37.70;98921.06;10395486;28;20045;-67
2023/03/25 16:10:48;;;;;;;5.85;1.40;;;;;;;13.01;38.81;98924.28;10391222;28;20489;-67
2023/03/25 16:15:56;;;;;;;4.22;1.40;;;;;;;12.95;38.49;98933.53;10390922;28;20112;-67
2023/03/25 16:21:00;;;;;;;4.50;1.48;;;;;;;12.90;38.83;98935.69;10391499;28;20421;-68
2023/03/25 16:26:03;;;;;;;6.03;1.42;;;;;;;12.90;39.19;98898.94;10396429;28;20052;-68
2023/03/25 16:31:05;;;;;;;4.85;1.30;;;;;;;12.28;40.64;98950.59;10398782;28;20063;-67
2023/03/25 16:36:14;;;;;;;4.50;1.20;;;;;;;12.30;41.36;98959.19;10390170;28;20142;-68
2023/03/25 16:41:16;;;;;;;3.30;1.00;;;;;;;12.28;42.08;98970.72;10398776;28;20560;-68
2023/03/25 16:46:20;;;;;;;5.03;1.30;;;;;;;11.98;43.11;98963.56;10393298;28;20540;-69
2023/03/25 16:51:34;;;;;;;5.97;1.15;;;;;;;11.70;43.92;98959.69;10390294;28;20041;-69
2023/03/25 16:56:37;;;;;;;4.30;1.30;;;;;;;11.61;43.88;98944.72;10389944;28;20277;-68
2023/03/25 17:01:41;;;;;;;3.03;1.17;;;;;;;11.44;44.54;98960.09;10390394;28;20112;-69
2023/03/25 17:06:56;;;;;;;7.30;1.45;;;;;;;11.48;44.63;98966.75;10388928;28;20085;-68
2023/03/25 17:11:59;;;;;;;4.68;1.38;;;;;;;11.39;44.79;98977.94;10389666;28;20042;-68
2023/03/25 17:17:26;;;;;;;3.53;1.10;;;;;;;11.19;45.09;98976.88;10399573;28;20046;-68
2023/03/25 17:22:39;;;;;;;5.03;1.25;;;;;;;10.87;45.41;98984.53;10390957;28;20083;-69
2023/03/25 17:27:41;;;;;;;4.28;1.38;;;;;;;10.98;45.12;99000.25;10399007;28;20496;-69
2023/03/25 17:32:44;;;;;;;5.50;1.30;;;;;;;10.95;45.16;98989.19;10391577;28;20862;-69
2023/03/25 17:37:48;;;;;;;5.68;1.42;;;;;;;10.72;45.67;99006.63;10388996;28;20390;-68
2023/03/25 17:42:52;;;;;;;5.13;1.40;;;;;;;10.83;45.46;99017.09;10389805;28;20049;-69
2023/03/25 17:47:53;;;;;;;4.38;1.30;;;;;;;10.56;46.29;99021.78;10388738;28;20053;-68
2023/03/25 17:52:56;;;;;;;4.45;1.30;;;;;;;10.56;46.05;99023.56;10372118;28;20163;-69
2023/03/25 17:57:57;;;;;;;4.90;1.40;;;;;;;10.47;46.73;99043.38;10387792;28;20045;-69
2023/03/25 18:02:59;;;;;;;3.90;1.27;;;;;;;10.37;47.14;99040.59;10385843;28;20057;-69
2023/03/25 18:08:02;;;;;;;5.38;1.50;;;;;;;10.30;47.45;99043.75;10389536;28;20135;-68
2023/03/25 18:13:04;;;;;;;3.42;1.35;;;;;;;10.28;47.54;99035.19;10369757;28;20045;-69
2023/03/25 18:18:10;;;;;;;5.70;1.67;;;;;;;10.13;48.00;99033.69;10386309;28;20076;-68
2023/03/25 18:23:13;;;;;;;4.57;1.40;;;;;;;10.03;48.15;99043.97;10383778;28;20063;-65
2023/03/25 18:28:16;;;;;;;3.72;1.45;;;;;;;10.00;48.25;99045.97;10386507;28;20409;-63
2023/03/25 18:33:25;;;;;;;3.75;1.20;;;;;;;9.80;48.57;99057.00;10401013;28;20433;-64
2023/03/25 18:38:27;;;;;;;4.85;1.27;;;;;;;9.61;49.17;99060.84;10383997;28;20475;-65
2023/03/25 18:43:29;;;;;;;3.92;1.27;;;;;;;9.63;49.16;99072.03;10386760;28;20051;-65
2023/03/25 18:48:31;;;;;;;6.88;1.25;;;;;;;9.59;49.35;99083.63;10380901;28;20048;-64
2023/03/25 18:53:32;;;;;;;3.88;1.20;;;;;;;9.47;49.76;99081.84;10380567;28;20050;-65
2023/03/25 18:58:35;;;;;;;3.25;1.50;;;;;;;9.19;50.78;99092.50;10363495;28;20054;-64
2023/03/25 19:03:40;;;;;;;5.00;1.92;;;;;;;9.24;50.85;99100.03;10383986;28;20049;-65
2023/03/25 19:08:42;;;;;;;4.05;1.30;;;;;;;9.25;50.94;99105.13;10383918;28;20046;-65
2023/03/25 19:13:44;;;;;;;6.25;1.70;;;;;;;9.24;51.14;99115.69;10386111;28;20068;-65
2023/03/25 19:18:47;;;;;;;5.82;1.55;;;;;;;9.12;51.66;99109.50;10347851;28;1153901;-66
2023/03/25 19:23:50;;;;;;;8.93;4.80;;;;;;;9.02;52.37;99131.91;10386286;28;20409;-65
2023/03/25 19:28:52;;;;;;;4.43;1.60;;;;;;;8.86;53.03;99126.03;10386249;28;20439;-64
2023/03/25 19:33:54;;;;;;;7.03;2.28;;;;;;;8.75;53.66;99136.34;10415904;28;20060;-65
2023/03/25 19:38:57;;;;;;;4.43;1.55;;;;;;;8.79;53.69;99136.00;10391924;28;20462;-65
2023/03/25 19:43:59;;;;;;;3.58;1.40;;;;;;;8.74;54.25;99139.84;10387050;28;20049;-64
2023/03/25 19:49:01;;;;;;;4.72;1.30;;;;;;;8.94;53.71;99130.72;10388454;28;20360;-65
2023/03/25 19:54:03;;;;;;;5.22;1.48;;;;;;;9.00;53.66;99131.16;10383854;28;20052;-65
2023/03/25 19:59:05;;;;;;;4.45;1.42;;;;;;;8.83;54.10;99136.66;10390265;28;20052;-65
2023/03/25 20:04:07;;;;;;;5.43;1.50;;;;;;;8.75;54.66;99131.13;10364569;28;20056;-65
2023/03/25 20:09:09;;;;;;;4.55;1.33;;;;;;;8.55;55.74;99126.31;10383622;28;20064;-65
2023/03/25 20:14:11;;;;;;;4.05;1.30;;;;;;;8.71;54.95;99119.19;10383593;28;20055;-65
2023/03/25 20:19:12;;;;;;;4.38;1.30;;;;;;;8.55;55.70;99114.13;10380182;28;20052;-66
2023/03/25 20:24:14;;;;;;;5.05;1.50;;;;;;;8.60;55.55;99112.09;10395664;28;20225;-65
2023/03/25 20:29:18;;;;;;;5.05;1.52;;;;;;;8.59;55.60;99096.53;10400220;28;20057;-65
2023/03/25 20:34:21;;;;;;;4.50;1.60;;;;;;;8.51;56.02;99098.78;10393338;28;20048;-65
2023/03/25 20:39:23;;;;;;;5.55;1.50;;;;;;;8.54;55.87;99106.44;10388125;28;20140;-65
2023/03/25 20:44:25;;;;;;;5.53;1.50;;;;;;;8.49;56.09;99095.44;10376954;28;20054;-65
2023/03/25 20:49:27;;;;;;;6.07;1.77;;;;;;;8.43;56.36;99093.25;10396334;28;20050;-66
2023/03/25 20:54:30;;;;;;;4.97;1.50;;;;;;;8.41;56.84;99095.09;10392376;28;20494;-65
2023/03/25 20:59:32;;;;;;;4.47;1.35;;;;;;;8.28;57.27;99102.88;10394295;28;20119;-65
2023/03/25 21:04:34;;;;;;;5.85;1.33;;;;;;;8.36;57.01;99103.25;10395537;28;20791;-65
2023/03/25 21:09:36;;;;;;;4.45;1.30;;;;;;;8.26;57.54;99102.13;10394607;28;20052;-65
2023/03/25 21:14:38;;;;;;;5.97;1.50;;;;;;;8.29;57.44;99112.38;10391908;28;20077;-65
2023/03/25 21:19:42;;;;;;;6.22;1.58;;;;;;;8.31;57.86;99120.91;10394316;28;20064;-65
2023/03/25 21:24:44;;;;;;;6.68;1.70;;;;;;;8.31;57.69;99127.88;10392639;28;20049;-65
2023/03/25 21:29:46;;;;;;;4.80;1.35;;;;;;;8.35;57.67;99132.81;10393622;28;20121;-65
2023/03/25 21:34:50;;;;;;;9.23;1.42;;;;;;;8.34;57.64;99135.53;10418183;28;20044;-65
2023/03/25 21:39:56;;;;;;;11.50;3.20;;;;;;;8.33;57.57;99139.06;10400387;28;20045;-65
2023/03/25 21:44:58;;;;;;;4.63;1.55;;;;;;;8.27;57.90;99140.28;10392310;28;20046;-65
2023/03/25 21:50:00;;;;;;;5.95;1.73;;;;;;;8.27;58.08;99135.06;10406699;28;20118;-65
2023/03/25 21:55:04;;;;;;;8.43;1.75;;;;;;;8.25;58.12;99147.34;10390354;28;20402;-64
2023/03/25 22:00:07;;;;;;;4.97;1.65;;;;;;;8.30;57.89;99149.69;10390115;28;20049;-65
2023/03/25 22:05:11;;;;;;;7.95;1.85;;;;;;;8.31;57.75;99146.13;10393933;28;20509;-64
2023/03/25 22:10:12;;;;;;;6.68;2.03;;;;;;;8.36;57.54;99167.53;10390693;28;20518;-65
2023/03/25 22:15:14;;;;;;;7.97;1.58;;;;;;;8.25;57.78;99156.94;10394188;28;20061;-64
2023/03/25 22:20:16;;;;;;;6.20;1.60;;;;;;;8.28;57.55;99157.56;10390361;28;20052;-64
2023/03/25 22:25:17;;;;;;;8.10;1.70;;;;;;;8.21;57.53;99163.25;10392183;28;20055;-64
2023/03/25 22:30:19;;;;;;;7.35;1.80;;;;;;;8.20;57.08;99154.59;10388226;28;20056;-64
2023/03/25 22:35:22;;;;;;;9.23;1.83;;;;;;;8.26;56.86;99167.25;10388161;28;20049;-64
2023/03/25 22:40:25;;;;;;;10.20;2.00;;;;;;;8.21;56.88;99169.31;10389888;28;20053;-64
2023/03/25 22:45:26;;;;;;;8.55;1.95;;;;;;;8.18;56.94;99164.28;10384272;28;20057;-64
2023/03/25 22:50:30;;;;;;;10.27;2.05;;;;;;;7.88;57.95;99169.59;10372869;28;20041;-64
2023/03/25 22:55:33;;;;;;;8.52;1.85;;;;;;;8.10;57.55;99165.69;10391093;28;20383;-64
2023/03/25 23:00:35;;;;;;;8.23;1.70;;;;;;;7.87;58.33;99160.13;10385619;28;20443;-65
2023/03/25 23:05:38;;;;;;;8.48;2.10;;;;;;;8.01;57.94;99165.31;10390827;28;20723;-65
2023/03/25 23:10:43;;;;;;;8.00;2.20;;;;;;;7.97;58.24;99165.59;10389671;28;20076;-64
2023/03/25 23:15:45;;;;;;;8.77;2.00;;;;;;;8.00;58.07;99174.03;10387202;28;20479;-64
2023/03/25 23:20:47;;;;;;;9.23;2.40;;;;;;;7.87;58.56;99169.69;10389446;28;20075;-65
2023/03/25 23:26:13;;;;;;;12.60;2.08;;;;;;;7.92;58.50;99165.03;10387563;28;20053;-65
2023/03/25 23:31:26;;;;;;;8.32;2.25;;;;;;;7.82;58.88;99167.34;10388026;28;20042;-65
2023/03/25 23:36:31;;;;;;;9.23;2.30;;;;;;;7.77;58.89;99161.56;10411507;28;20053;-64
2023/03/25 23:41:34;;;;;;;10.00;2.25;;;;;;;7.83;58.64;99176.00;10387331;28;20048;-64
2023/03/25 23:46:35;;;;;;;14.73;2.83;;;;;;;7.72;58.97;99173.22;10386977;28;20075;-63
2023/03/25 23:51:40;;;;;;;12.43;2.60;;;;;;;7.79;58.88;99175.34;10387060;28;20179;-63
2023/03/25 23:56:42;;;;;;;18.10;2.90;;;;;;;7.68;59.21;99187.34;10394673;28;20045;-64
